Time;durP1;ratioP1;P1;durP2;ratioP2;P2;SDS_P1;SDS_P2;PMS_P1;PMS_P2;Temp;Humidity;BMP_temperature;BMP_pressure;BME280_temperature;BME280_humidity;BME280_pressure;Samples;Min_cycle;Max_cycle;Signal;HPM_P1;HPM_P2
2022/12/29 00:01:01;;;;;;;;;;;;;;;12.45;54.54;101504.44;4928876;29;19915;-78
2022/12/29 00:03:46;;;;;;;;;;;;;;;12.35;54.72;101496.50;4929881;29;19915;-78
2022/12/29 00:06:30;;;;;;;;;;;;;;;12.33;54.30;101496.00;4935931;29;19919;-80
2022/12/29 00:09:16;;;;;;;;;;;;;;;12.40;53.42;101488.19;4924051;29;19915;-80
2022/12/29 00:12:01;;;;;;;;;;;;;;;12.40;53.28;101483.53;4921776;29;19915;-79
2022/12/29 00:17:50;;;;;;;;;;;;;;;12.17;54.17;101501.00;4904915;29;19915;-78
2022/12/29 00:35:54;;;;;;;;;;;;;;;11.56;57.84;101487.81;4923329;29;19919;-79
2022/12/29 00:44:48;;;;;;;;;;;;;;;11.87;56.93;101480.66;4921809;29;19915;-80
2022/12/29 00:47:33;;;;;;;;;;;;;;;11.29;58.66;101485.06;4935145;29;19919;-78
2022/12/29 00:50:17;;;;;;;;;;;;;;;11.08;60.08;101492.78;4924998;29;19915;-79
2022/12/29 00:53:02;;;;;;;;;;;;;;;11.11;60.53;101497.66;4919379;29;19919;-79
2022/12/29 00:55:46;;;;;;;;;;;;;;;10.93;61.06;101501.22;4920999;29;19915;-80
2022/12/29 00:58:31;;;;;;;;;;;;;;;10.79;61.34;101486.75;4924978;29;19915;-79
2022/12/29 01:01:15;;;;;;;;;;;;;;;11.03;61.05;101474.63;4920415;29;19915;-80
2022/12/29 01:04:00;;;;;;;;;;;;;;;11.07;60.99;101483.81;4937246;29;19915;-79
2022/12/29 01:06:45;;;;;;;;;;;;;;;11.08;61.01;101481.91;4953393;28;20300;-81
2022/12/29 01:12:40;;;;;;;;;;;;;;;10.99;61.52;101503.56;4939687;29;19915;-80
2022/12/29 01:15:26;;;;;;;;;;;;;;;11.04;61.43;101492.59;4939505;29;19915;-79
2022/12/29 01:18:11;;;;;;;;;;;;;;;11.00;61.27;101494.28;4939231;29;19915;-78
2022/12/29 01:21:00;;;;;;;;;;;;;;;11.25;60.61;101489.50;4922838;28;19916;-78
2022/12/29 01:23:45;;;;;;;;;;;;;;;11.47;59.83;101487.72;4918410;29;19915;-78
2022/12/29 01:26:29;;;;;;;;;;;;;;;11.62;59.35;101483.88;4903143;29;19919;-77
2022/12/29 01:29:14;;;;;;;;;;;;;;;11.62;59.43;101488.50;4905209;29;19915;-79
2022/12/29 01:31:58;;;;;;;;;;;;;;;11.81;58.83;101484.59;4920835;29;19915;-78
2022/12/29 01:34:42;;;;;;;;;;;;;;;11.85;58.47;101488.31;4918496;29;19923;-77
2022/12/29 01:37:27;;;;;;;;;;;;;;;11.76;58.86;101490.16;4921421;29;19919;-77
2022/12/29 01:40:12;;;;;;;;;;;;;;;11.84;58.76;101491.34;4920484;29;19919;-77
2022/12/29 01:42:56;;;;;;;;;;;;;;;11.92;58.47;101487.91;4936559;29;19915;-78
2022/12/29 01:45:48;;;;;;;;;;;;;;;11.99;58.28;101494.56;4921625;29;19919;-78
2022/12/29 01:48:32;;;;;;;;;;;;;;;12.06;58.30;101504.25;4938523;29;19919;-78
2022/12/29 01:51:17;;;;;;;;;;;;;;;12.02;58.17;101500.53;4921640;29;19915;-79
2022/12/29 01:54:04;;;;;;;;;;;;;;;11.90;58.77;101495.56;4933464;29;19918;-79
2022/12/29 01:56:50;;;;;;;;;;;;;;;11.91;58.75;101495.28;4920601;29;19914;-78
2022/12/29 01:59:39;;;;;;;;;;;;;;;12.10;58.43;101486.16;4935253;29;19915;-80
2022/12/29 02:02:24;;;;;;;;;;;;;;;12.18;58.15;101480.00;4925374;29;19915;-78
2022/12/29 02:05:17;;;;;;;;;;;;;;;12.24;58.29;101479.56;4919966;29;19915;-79
2022/12/29 02:08:03;;;;;;;;;;;;;;;12.30;58.07;101474.78;4919790;29;19919;-79
2022/12/29 02:10:48;;;;;;;;;;;;;;;12.29;58.24;101465.03;4919537;29;19918;-79
2022/12/29 02:13:34;;;;;;;;;;;;;;;12.29;58.43;101465.81;4919908;29;19915;-79
2022/12/29 02:16:45;;;;;;;;;;;;;;;12.28;58.11;101464.22;4914982;29;19914;-79
2022/12/29 02:19:41;;;;;;;;;;;;;;;12.22;58.39;101465.44;4908368;29;19916;-78
2022/12/29 02:22:35;;;;;;;;;;;;;;;12.20;58.60;101470.38;4917287;29;19915;-78
2022/12/29 02:25:34;;;;;;;;;;;;;;;12.15;58.47;101469.69;4904640;29;19915;-77
2022/12/29 02:28:38;;;;;;;;;;;;;;;12.01;59.00;101458.81;4923914;29;19919;-78
2022/12/29 02:31:26;;;;;;;;;;;;;;;12.00;58.58;101458.00;4913110;29;19915;-78
2022/12/29 02:34:17;;;;;;;;;;;;;;;12.06;58.67;101466.06;4922373;29;19974;-79
2022/12/29 02:37:08;;;;;;;;;;;;;;;12.02;58.75;101476.00;4901791;29;19919;-80
2022/12/29 02:39:55;;;;;;;;;;;;;;;12.05;58.56;101473.44;4922665;29;19919;-78
2022/12/29 02:43:01;;;;;;;;;;;;;;;12.06;58.57;101466.06;4905327;29;19915;-78
2022/12/29 02:45:46;;;;;;;;;;;;;;;12.03;58.42;101463.97;4910734;29;19915;-79
2022/12/29 02:48:45;;;;;;;;;;;;;;;11.98;58.90;101448.53;4901820;29;19920;-78
2022/12/29 02:51:34;;;;;;;;;;;;;;;11.95;58.76;101454.59;4922683;29;19915;-80
2022/12/29 02:57:25;;;;;;;;;;;;;;;11.91;58.84;101448.16;4914650;29;19970;-78
2022/12/29 03:00:12;;;;;;;;;;;;;;;11.95;59.00;101440.97;4919316;29;20388;-79
2022/12/29 03:03:00;;;;;;;;;;;;;;;11.97;58.66;101436.84;4903434;29;19915;-78
2022/12/29 03:05:44;;;;;;;;;;;;;;;11.98;58.96;101435.72;4900184;29;20404;-78
2022/12/29 03:08:39;;;;;;;;;;;;;;;12.03;58.69;101436.72;4911402;29;19919;-79
2022/12/29 03:17:48;;;;;;;;;;;;;;;11.30;61.24;101464.91;4899776;29;19916;-77
2022/12/29 03:20:42;;;;;;;;;;;;;;;11.39;61.54;101458.44;4907632;29;19924;-78
2022/12/29 03:23:28;;;;;;;;;;;;;;;11.64;60.21;101443.50;4899770;29;19916;-77
2022/12/29 03:26:14;;;;;;;;;;;;;;;11.64;59.70;101435.31;4910809;29;19919;-78
2022/12/29 03:28:59;;;;;;;;;;;;;;;11.68;59.62;101439.09;4917194;29;20372;-78
2022/12/29 03:31:48;;;;;;;;;;;;;;;11.71;59.27;101435.72;4913274;29;19937;-79
2022/12/29 03:34:33;;;;;;;;;;;;;;;11.53;59.49;101436.66;4928362;29;19919;-78
2022/12/29 03:37:20;;;;;;;;;;;;;;;11.41;60.22;101434.44;4921826;29;19915;-78
2022/12/29 03:40:05;;;;;;;;;;;;;;;11.35;60.60;101437.56;4919923;29;19915;-78
2022/12/29 03:42:50;;;;;;;;;;;;;;;11.29;60.34;101431.41;4919932;29;19927;-79
2022/12/29 03:45:35;;;;;;;;;;;;;;;11.29;60.64;101428.69;4902047;29;19915;-78
2022/12/29 03:48:20;;;;;;;;;;;;;;;11.31;60.12;101431.13;4909140;29;19919;-79
2022/12/29 03:51:07;;;;;;;;;;;;;;;11.18;60.54;101432.72;4912120;29;19915;-78
2022/12/29 03:53:52;;;;;;;;;;;;;;;11.45;59.33;101429.19;4914774;29;20392;-79
2022/12/29 03:56:36;;;;;;;;;;;;;;;11.34;59.29;101439.47;4920027;29;20392;-79
2022/12/29 03:59:21;;;;;;;;;;;;;;;11.55;58.59;101434.44;4918336;29;19915;-80
2022/12/29 04:02:07;;;;;;;;;;;;;;;11.55;58.28;101435.25;4902397;29;19915;-79
2022/12/29 04:04:52;;;;;;;;;;;;;;;11.59;57.84;101435.44;4920101;29;19915;-79
2022/12/29 04:07:36;;;;;;;;;;;;;;;11.51;58.10;101426.06;4916035;29;19919;-78
2022/12/29 04:10:21;;;;;;;;;;;;;;;11.49;58.53;101431.00;4900692;29;19919;-78
2022/12/29 04:13:09;;;;;;;;;;;;;;;11.37;58.79;101438.09;4908535;29;19915;-78
2022/12/29 04:15:53;;;;;;;;;;;;;;;11.45;58.79;101429.19;4902141;29;19915;-80
2022/12/29 04:18:38;;;;;;;;;;;;;;;11.63;58.65;101431.00;4911124;29;19916;-80
2022/12/29 04:21:23;;;;;;;;;;;;;;;11.34;59.01;101438.66;4912901;29;19919;-78
2022/12/29 04:24:08;;;;;;;;;;;;;;;10.92;59.03;101437.81;4901126;29;19915;-78
2022/12/29 04:26:57;;;;;;;;;;;;;;;11.13;59.08;101439.06;4899303;29;19919;-78
2022/12/29 04:30:05;;;;;;;;;;;;;;;11.43;58.84;101428.69;4911106;29;19919;-78
2022/12/29 04:33:05;;;;;;;;;;;;;;;11.59;58.42;101430.00;4908549;29;19915;-79
2022/12/29 04:35:52;;;;;;;;;;;;;;;11.63;57.82;101417.38;4909014;29;19915;-78
2022/12/29 04:38:38;;;;;;;;;;;;;;;11.60;58.17;101423.44;4921081;29;19915;-77
2022/12/29 04:41:23;;;;;;;;;;;;;;;11.67;58.58;101421.13;4924520;29;19919;-79
2022/12/29 04:44:08;;;;;;;;;;;;;;;11.71;58.29;101422.13;4923061;29;19914;-78
2022/12/29 04:47:11;;;;;;;;;;;;;;;11.82;58.28;101425.47;4922588;29;19919;-81
2022/12/29 04:50:14;;;;;;;;;;;;;;;11.60;58.51;101442.50;4923195;29;19914;-81
2022/12/29 04:53:09;;;;;;;;;;;;;;;10.90;60.77;101448.22;4914480;29;19919;-80
2022/12/29 04:55:55;;;;;;;;;;;;;;;10.85;61.45;101448.31;4912391;29;19914;-78
2022/12/29 04:58:40;;;;;;;;;;;;;;;11.07;61.09;101445.69;4920497;29;19915;-78
2022/12/29 05:01:24;;;;;;;;;;;;;;;11.29;60.05;101403.38;4930204;29;19915;-79
2022/12/29 05:04:09;;;;;;;;;;;;;;;11.28;60.29;101412.66;4916781;29;19915;-79
2022/12/29 05:06:53;;;;;;;;;;;;;;;11.36;60.12;101411.97;4913288;29;19923;-77
2022/12/29 05:09:37;;;;;;;;;;;;;;;11.46;60.00;101430.81;4920228;29;19915;-78
2022/12/29 05:12:23;;;;;;;;;;;;;;;11.17;61.00;101427.59;4910633;29;19919;-78
2022/12/29 05:15:16;;;;;;;;;;;;;;;11.36;60.39;101417.41;4916449;29;19915;-80
2022/12/29 05:18:01;;;;;;;;;;;;;;;11.26;61.30;101431.22;4906159;29;19915;-80
2022/12/29 05:20:47;;;;;;;;;;;;;;;11.44;60.99;101435.75;4917581;29;19914;-78
2022/12/29 05:23:32;;;;;;;;;;;;;;;11.54;60.73;101443.72;4925514;29;19915;-80
2022/12/29 05:26:21;;;;;;;;;;;;;;;11.59;60.40;101446.34;4921016;29;19915;-79
2022/12/29 05:29:15;;;;;;;;;;;;;;;11.04;62.26;101459.13;4920746;29;19919;-79
2022/12/29 05:32:00;;;;;;;;;;;;;;;11.25;61.53;101446.75;4920538;29;19915;-79
2022/12/29 05:34:45;;;;;;;;;;;;;;;11.12;62.06;101434.72;4917489;29;19919;-79
2022/12/29 05:37:29;;;;;;;;;;;;;;;11.27;61.37;101425.47;4975984;23;19922;-84
2022/12/29 05:40:14;;;;;;;;;;;;;;;11.14;61.71;101439.88;4958674;29;19919;-85
2022/12/29 05:42:59;;;;;;;;;;;;;;;10.84;62.70;101443.97;4959067;28;19915;-85
2022/12/29 05:46:10;;;;;;;;;;;;;;;11.25;61.91;101451.38;4957659;28;19915;-86
2022/12/29 05:49:13;;;;;;;;;;;;;;;11.20;61.67;101449.56;4954028;29;19918;-86
2022/12/29 05:52:28;;;;;;;;;;;;;;;11.23;61.24;101446.22;4952799;29;19914;-86
2022/12/29 05:55:13;;;;;;;;;;;;;;;11.37;60.84;101440.81;4951742;29;19915;-86
2022/12/29 05:57:59;;;;;;;;;;;;;;;11.33;61.02;101443.31;4957226;28;19915;-85
2022/12/29 06:00:44;;;;;;;;;;;;;;;11.36;60.82;101436.47;4970065;28;19922;-83
2022/12/29 06:03:30;;;;;;;;;;;;;;;11.37;60.78;101441.63;4958844;28;19915;-83
2022/12/29 06:06:15;;;;;;;;;;;;;;;11.40;60.56;101434.75;4950236;28;19914;-83
2022/12/29 06:09:01;;;;;;;;;;;;;;;11.31;60.85;101437.38;4957507;28;19923;-84
2022/12/29 06:11:47;;;;;;;;;;;;;;;11.12;61.23;101440.16;4959520;28;19918;-84
2022/12/29 06:14:31;;;;;;;;;;;;;;;11.11;61.38;101443.22;4955880;29;19918;-84
2022/12/29 06:17:16;;;;;;;;;;;;;;;11.30;60.72;101437.66;4958990;28;19914;-85
2022/12/29 06:20:01;;;;;;;;;;;;;;;11.34;60.11;101433.22;4968617;28;19918;-82
2022/12/29 06:22:46;;;;;;;;;;;;;;;11.38;59.48;101428.78;4953805;29;19918;-84
2022/12/29 06:25:33;;;;;;;;;;;;;;;11.41;59.45;101426.28;4951903;28;19949;-84
2022/12/29 06:28:18;;;;;;;;;;;;;;;11.34;58.34;101430.50;4953305;28;19918;-84
2022/12/29 06:31:03;;;;;;;;;;;;;;;11.40;58.54;101423.84;4959726;28;19915;-85
2022/12/29 06:33:48;;;;;;;;;;;;;;;11.51;58.04;101428.78;4948866;29;19915;-85
2022/12/29 06:36:34;;;;;;;;;;;;;;;11.15;58.85;101420.53;4955227;29;19918;-84
2022/12/29 06:39:18;;;;;;;;;;;;;;;10.95;59.27;101434.50;4963827;28;20396;-83
2022/12/29 06:42:16;;;;;;;;;;;;;;;10.85;59.82;101442.84;4952062;28;19932;-85
2022/12/29 06:45:07;;;;;;;;;;;;;;;10.71;60.64;101436.59;4957935;28;19914;-84
2022/12/29 06:47:52;;;;;;;;;;;;;;;10.65;60.99;101443.22;4950414;29;19918;-84
2022/12/29 06:50:36;;;;;;;;;;;;;;;10.39;62.44;101450.16;4951941;29;19914;-83
2022/12/29 06:53:21;;;;;;;;;;;;;;;10.28;63.85;101449.50;4962630;29;19918;-84
2022/12/29 06:56:05;;;;;;;;;;;;;;;10.40;63.80;101446.34;4955085;28;19914;-85
2022/12/29 06:58:49;;;;;;;;;;;;;;;10.56;63.87;101439.56;4960765;28;20384;-84
2022/12/29 07:01:35;;;;;;;;;;;;;;;10.50;64.19;101440.75;4957101;28;19914;-83
2022/12/29 07:04:20;;;;;;;;;;;;;;;10.59;64.05;101436.22;4959456;29;19914;-85
2022/12/29 07:07:04;;;;;;;;;;;;;;;10.46;64.23;101428.84;4954473;28;19922;-85
2022/12/29 07:09:50;;;;;;;;;;;;;;;10.27;64.87;101431.56;4961741;29;19930;-86
2022/12/29 07:12:34;;;;;;;;;;;;;;;10.34;64.89;101436.66;4963955;28;19914;-83
2022/12/29 07:15:19;;;;;;;;;;;;;;;10.77;63.46;101432.66;4964990;29;19915;-83
2022/12/29 07:18:03;;;;;;;;;;;;;;;10.83;63.40;101433.38;4952729;29;19914;-85
2022/12/29 07:20:48;;;;;;;;;;;;;;;10.62;63.20;101438.34;4961179;28;19914;-85
2022/12/29 07:23:33;;;;;;;;;;;;;;;10.43;63.87;101449.25;4966728;28;19914;-84
2022/12/29 07:26:18;;;;;;;;;;;;;;;10.45;63.80;101448.97;4962093;29;19914;-84
2022/12/29 07:29:03;;;;;;;;;;;;;;;10.44;63.90;101447.34;4961958;28;19918;-85
2022/12/29 07:31:47;;;;;;;;;;;;;;;10.77;63.02;101443.53;4965334;29;19914;-84
2022/12/29 07:34:32;;;;;;;;;;;;;;;10.87;62.92;101437.13;4948590;29;19918;-82
2022/12/29 07:37:16;;;;;;;;;;;;;;;10.99;62.72;101440.16;4955412;28;20376;-83
2022/12/29 07:40:01;;;;;;;;;;;;;;;11.09;62.47;101440.78;4961328;28;19914;-84
2022/12/29 07:42:46;;;;;;;;;;;;;;;11.13;62.30;101438.25;4959405;29;19914;-83
2022/12/29 07:45:33;;;;;;;;;;;;;;;11.22;62.08;101444.63;4962500;29;19915;-85
2022/12/29 07:48:26;;;;;;;;;;;;;;;11.22;62.29;101443.81;4960438;28;20391;-83
2022/12/29 07:51:10;;;;;;;;;;;;;;;11.13;62.35;101447.22;4967117;28;19914;-85
2022/12/29 07:53:55;;;;;;;;;;;;;;;11.24;62.46;101460.66;4964199;29;20343;-83
2022/12/29 07:56:40;;;;;;;;;;;;;;;10.93;62.99;101479.44;4955838;29;19915;-83
2022/12/29 07:59:24;;;;;;;;;;;;;;;11.63;66.08;101484.69;4957746;29;19923;-85
2022/12/29 08:02:10;;;;;;;;;;;;;;;8.79;72.76;101471.59;4953741;29;19915;-84
2022/12/29 08:04:54;;;;;;;;;;;;;;;8.57;73.86;101472.06;4945768;29;19915;-84
2022/12/29 08:07:39;;;;;;;;;;;;;;;8.45;75.38;101475.13;4949090;29;19927;-85
2022/12/29 08:10:23;;;;;;;;;;;;;;;8.92;76.02;101476.38;4956300;29;20295;-84
2022/12/29 08:13:08;;;;;;;;;;;;;;;9.68;71.80;101473.66;4953067;28;19914;-84
2022/12/29 08:15:52;;;;;;;;;;;;;;;9.83;69.58;101478.09;4975859;28;19922;-84
2022/12/29 08:18:36;;;;;;;;;;;;;;;9.85;69.21;101487.56;4947232;29;19914;-84
2022/12/29 08:21:21;;;;;;;;;;;;;;;9.59;70.24;101480.03;4959601;28;20395;-84
2022/12/29 08:24:06;;;;;;;;;;;;;;;9.56;70.71;101494.16;4948375;29;20300;-84
2022/12/29 08:26:50;;;;;;;;;;;;;;;9.33;71.23;101495.78;4951186;29;19914;-83
2022/12/29 08:29:35;;;;;;;;;;;;;;;9.61;70.79;101507.69;4953376;29;20315;-84
2022/12/29 08:32:19;;;;;;;;;;;;;;;9.58;70.83;101502.84;4956496;28;19914;-84
2022/12/29 08:35:04;;;;;;;;;;;;;;;9.39;71.37;101497.38;4962287;28;19918;-84
2022/12/29 08:37:49;;;;;;;;;;;;;;;9.26;71.85;101514.31;4957991;28;19915;-83
2022/12/29 08:40:33;;;;;;;;;;;;;;;9.27;72.32;101516.75;4959981;28;19914;-83
2022/12/29 08:43:18;;;;;;;;;;;;;;;9.36;72.42;101520.44;4955712;28;19918;-83
2022/12/29 08:46:03;;;;;;;;;;;;;;;9.61;71.24;101522.06;4958529;28;19922;-84
2022/12/29 08:48:47;;;;;;;;;;;;;;;9.45;72.38;101517.91;4965245;28;19918;-83
2022/12/29 08:51:32;;;;;;;;;;;;;;;9.52;71.93;101514.84;4948608;29;19919;-81
2022/12/29 08:54:16;;;;;;;;;;;;;;;9.43;71.37;101517.41;4945883;28;19922;-78
2022/12/29 08:57:01;;;;;;;;;;;;;;;9.43;72.13;101509.25;4948766;29;19914;-79
2022/12/29 08:59:52;;;;;;;;;;;;;;;9.37;72.28;101510.41;4944703;29;20279;-78
2022/12/29 09:02:37;;;;;;;;;;;;;;;9.37;72.71;101494.94;4952927;29;19914;-77
2022/12/29 09:05:22;;;;;;;;;;;;;;;9.35;72.71;101490.88;4948178;29;19922;-78
2022/12/29 09:08:06;;;;;;;;;;;;;;;9.51;71.97;101502.38;4944848;29;19919;-79
2022/12/29 09:10:51;;;;;;;;;;;;;;;9.01;73.27;101507.22;4936800;29;19919;-78
2022/12/29 09:13:35;;;;;;;;;;;;;;;8.89;74.50;101504.06;4949941;28;19915;-78
2022/12/29 09:16:21;;;;;;;;;;;;;;;9.19;73.73;101524.72;4952325;28;20275;-80
2022/12/29 09:19:06;;;;;;;;;;;;;;;9.35;72.47;101524.25;4942571;29;19914;-78
2022/12/29 09:21:50;;;;;;;;;;;;;;;9.39;72.32;101530.75;4937387;29;19915;-79
2022/12/29 09:24:34;;;;;;;;;;;;;;;9.19;72.52;101525.53;4942658;28;20303;-78
2022/12/29 09:27:19;;;;;;;;;;;;;;;9.40;72.23;101499.78;4946041;29;19914;-77
2022/12/29 09:30:05;;;;;;;;;;;;;;;9.14;72.84;101500.34;4947168;29;19914;-76
2022/12/29 09:32:50;;;;;;;;;;;;;;;9.51;71.61;101500.47;4943768;29;19915;-76
2022/12/29 09:35:34;;;;;;;;;;;;;;;9.06;74.21;101500.94;4936471;29;19914;-76
2022/12/29 09:38:20;;;;;;;;;;;;;;;9.63;71.77;101502.78;4944436;29;20371;-77
2022/12/29 09:41:24;;;;;;;;;;;;;;;9.60;71.10;101500.66;4942922;29;19918;-76
2022/12/29 09:44:15;;;;;;;;;;;;;;;9.98;70.08;101505.06;4950774;29;19915;-76
2022/12/29 09:47:00;;;;;;;;;;;;;;;9.43;70.87;101510.06;4954995;29;19915;-77
2022/12/29 09:49:49;;;;;;;;;;;;;;;9.38;72.38;101522.88;4954203;28;19918;-77
2022/12/29 09:52:37;;;;;;;;;;;;;;;9.72;70.18;101511.91;4944568;28;19918;-76
2022/12/29 09:55:24;;;;;;;;;;;;;;;9.58;70.89;101500.13;4948260;28;19918;-77
2022/12/29 09:58:21;;;;;;;;;;;;;;;9.88;70.29;101502.47;4946601;28;19922;-76
2022/12/29 10:01:21;;;;;;;;;;;;;;;10.02;69.59;101502.56;4964795;28;19922;-77
2022/12/29 10:04:05;;;;;;;;;;;;;;;9.99;69.31;101508.59;4946093;29;20368;-77
2022/12/29 10:06:53;;;;;;;;;;;;;;;10.02;67.96;101508.81;4936132;29;19915;-78
2022/12/29 10:09:46;;;;;;;;;;;;;;;10.48;67.31;101502.75;4935899;29;19918;-78
2022/12/29 10:12:47;;;;;;;;;;;;;;;10.59;67.17;101501.50;4942644;29;19915;-76
2022/12/29 10:15:47;;;;;;;;;;;;;;;10.72;66.71;101492.56;4939772;29;20380;-76
2022/12/29 10:18:35;;;;;;;;;;;;;;;11.49;63.76;101482.75;4937691;29;20419;-77
2022/12/29 10:21:29;;;;;;;;;;;;;;;10.95;64.39;101464.44;4941103;29;19914;-77
2022/12/29 10:24:16;;;;;;;;;;;;;;;10.59;66.81;101471.59;4954090;29;19914;-75
2022/12/29 10:27:01;;;;;;;;;;;;;;;10.87;66.97;101486.88;4949443;28;19914;-76
2022/12/29 10:29:52;;;;;;;;;;;;;;;11.34;64.45;101487.69;4946015;28;19918;-76
2022/12/29 10:32:39;;;;;;;;;;;;;;;10.75;67.49;101472.97;4942451;29;19914;-77
2022/12/29 10:35:25;;;;;;;;;;;;;;;10.70;65.30;101459.44;4938499;29;19914;-82
2022/12/29 10:38:36;;;;;;;;;;;;;;;10.38;66.29;101448.53;4953416;29;19915;-81
2022/12/29 10:41:28;;;;;;;;;;;;;;;10.12;68.33;101443.44;4946308;28;19914;-81
2022/12/29 10:44:15;;;;;;;23.15;12.15;;;;;;;11.47;63.33;101454.22;4945335;29;20779;-77
2022/12/29 10:47:07;;;;;;;24.80;11.57;;;;;;;11.73;60.50;101454.53;4949039;28;20048;-78
2022/12/29 10:49:53;;;;;;;22.70;11.52;;;;;;;11.50;59.13;101454.41;4951360;29;20047;-79
2022/12/29 10:52:39;;;;;;;21.83;11.13;;;;;;;11.73;58.88;101455.34;4948021;29;20034;-80
2022/12/29 10:55:32;;;;;;;19.67;9.88;;;;;;;12.05;57.39;101443.47;4954764;29;20047;-79
2022/12/29 10:58:18;;;;;;;17.60;10.88;;;;;;;12.18;57.17;101437.19;4957906;29;20413;-80
2022/12/29 11:01:04;;;;;;;21.50;11.25;;;;;;;12.07;56.19;101437.72;4955723;29;20051;-79
2022/12/29 11:04:05;;;;;;;18.67;10.60;;;;;;;11.96;56.14;101437.94;4953537;29;20047;-79
2022/12/29 11:06:51;;;;;;;19.45;10.43;;;;;;;11.74;57.11;101437.06;4944381;28;20043;-78
2022/12/29 11:09:38;;;;;;;16.48;11.57;;;;;;;11.77;58.14;101426.38;4945749;29;20048;-78
2022/12/29 11:12:28;;;;;;;21.80;11.73;;;;;;;11.60;58.38;101423.44;4938308;29;20051;-78
2022/12/29 11:15:15;;;;;;;22.05;13.93;;;;;;;11.26;60.74;101414.88;4949259;28;20043;-79
2022/12/29 11:18:00;;;;;;;23.05;13.43;;;;;;;11.20;61.23;101426.97;4948924;29;20040;-79
2022/12/29 11:20:45;;;;;;;21.98;13.27;;;;;;;11.15;62.05;101434.13;4948735;29;20038;-78
2022/12/29 11:23:32;;;;;;;16.67;10.45;;;;;;;11.06;63.77;101437.84;4956111;29;20047;-78
2022/12/29 11:26:20;;;;;;;24.13;15.80;;;;;;;10.67;67.62;101451.88;4955333;29;20406;-80
2022/12/29 11:29:08;;;;;;;27.38;14.77;;;;;;;9.62;71.91;101452.28;4955653;29;20070;-79
2022/12/29 11:31:57;;;;;;;25.90;14.88;;;;;;;9.93;71.19;101444.56;4946617;29;20070;-79
2022/12/29 11:34:42;;;;;;;26.80;15.23;;;;;;;9.81;71.90;101437.63;4942593;29;20054;-79
2022/12/29 11:37:29;;;;;;;;;;;;;;;9.32;73.35;101429.84;5007876;23;20066;-77
2022/12/29 11:40:20;;;;;;;32.40;15.20;;;;;;;9.30;73.26;101418.47;4952787;29;19919;-77
2022/12/29 11:43:18;;;;;;;27.00;17.15;;;;;;;9.83;71.81;101411.00;4950009;29;20523;-77
2022/12/29 11:46:05;;;;;;;26.40;16.38;;;;;;;9.67;72.51;101416.91;4956706;28;20105;-78
2022/12/29 11:48:50;;;;;;;26.92;16.30;;;;;;;9.28;73.88;101426.09;4940347;29;20042;-77
2022/12/29 11:51:43;;;;;;;22.35;12.13;;;;;;;8.94;75.47;101437.03;4939447;29;20070;-75
2022/12/29 11:54:36;;;;;;;25.77;15.60;;;;;;;8.90;75.95;101440.59;4939661;29;20440;-76
2022/12/29 11:57:23;;;;;;;22.15;14.32;;;;;;;8.80;76.86;101432.56;4934334;29;20051;-76
2022/12/29 12:00:19;;;;;;;23.42;14.95;;;;;;;9.04;76.87;101414.41;4933379;29;20047;-74
2022/12/29 12:03:13;;;;;;;22.48;12.25;;;;;;;9.16;76.01;101406.69;4919273;29;20075;-75
2022/12/29 12:06:02;;;;;;;31.80;17.95;;;;;;;9.10;76.51;101405.13;4922440;29;20409;-75
2022/12/29 12:09:19;;;;;;;26.35;15.20;;;;;;;9.55;74.58;101383.97;4939064;29;20524;-76
2022/12/29 12:12:08;;;;;;;25.50;14.95;;;;;;;9.67;73.89;101360.72;4925370;29;20047;-75
2022/12/29 12:14:59;;;;;;;24.45;15.35;;;;;;;9.91;72.94;101359.81;4927860;29;20076;-76
2022/12/29 12:18:14;;;;;;;24.52;13.05;;;;;;;9.69;73.20;101363.13;4927905;29;20058;-74
2022/12/29 12:21:12;;;;;;;25.40;15.38;;;;;;;9.79;72.94;101365.72;4929055;29;20046;-75
2022/12/29 12:24:35;;;;;;;32.95;16.00;;;;;;;9.87;73.44;101365.84;4938263;29;20046;-74
2022/12/29 12:27:33;;;;;;;24.20;14.43;;;;;;;9.88;73.75;101378.34;4933175;29;20051;-78
2022/12/29 12:30:21;;;;;;;27.83;16.35;;;;;;;9.73;74.39;101386.69;4928599;29;20066;-76
2022/12/29 12:33:28;;;;;;;28.58;17.65;;;;;;;9.27;75.88;101405.47;4934069;29;20106;-76
2022/12/29 12:36:21;;;;;;;29.85;17.60;;;;;;;9.08;77.33;101417.38;4930097;29;20040;-76
2022/12/29 12:39:22;;;;;;;33.00;18.88;;;;;;;9.10;78.20;101407.84;4938544;29;20050;-76
2022/12/29 12:42:23;;;;;;;32.03;19.08;;;;;;;9.33;77.40;101411.66;4935784;29;20047;-75
2022/12/29 12:45:37;;;;;;;28.17;16.35;;;;;;;9.34;78.54;101407.84;4933107;29;20050;-75
2022/12/29 12:48:55;;;;;;;29.90;17.65;;;;;;;9.70;76.31;101381.06;4927548;29;20050;-76
2022/12/29 12:52:07;;;;;;;30.70;15.70;;;;;;;10.14;73.55;101367.88;4925151;29;20052;-75
2022/12/29 12:55:18;;;;;;;29.02;16.50;;;;;;;10.21;73.28;101379.19;4920001;29;20048;-75
2022/12/29 12:58:03;;;;;;;27.75;16.75;;;;;;;10.09;73.93;101370.69;4944963;29;20047;-78
2022/12/29 13:01:27;;;;;;;22.10;12.73;;;;;;;9.77;74.32;101381.47;4930070;29;20035;-77
2022/12/29 13:04:42;;;;;;;27.60;16.95;;;;;;;9.52;76.60;101384.53;4937793;29;20067;-75
2022/12/29 13:07:41;;;;;;;26.73;16.45;;;;;;;9.04;79.07;101392.69;4939059;29;20051;-77
2022/12/29 13:10:35;;;;;;;29.45;17.85;;;;;;;9.12;79.73;101418.41;4942573;29;20074;-78
2022/12/29 13:13:47;;;;;;;56.53;26.63;;;;;;;9.03;80.50;101412.81;4939544;29;20514;-77
2022/12/29 13:16:56;;;;;;;37.03;24.88;;;;;;;9.30;79.72;101387.78;4940059;29;20058;-76
2022/12/29 13:19:55;;;;;;;25.77;15.38;;;;;;;9.55;78.26;101382.03;4938438;29;20401;-77
2022/12/29 13:23:05;;;;;;;29.23;16.98;;;;;;;9.80;77.29;101370.03;4941605;29;20042;-77
2022/12/29 13:25:59;;;;;;;27.38;16.13;;;;;;;9.98;76.94;101365.69;4936346;29;20046;-77
2022/12/29 13:29:01;;;;;;;27.50;16.33;;;;;;;10.05;76.24;101375.09;4935800;29;20051;-77
2022/12/29 13:31:49;;;;;;;28.17;16.50;;;;;;;10.05;75.86;101380.53;4922400;29;20044;-77
2022/12/29 13:35:01;;;;;;;26.58;15.40;;;;;;;9.99;76.18;101376.28;4919834;29;20047;-77
2022/12/29 13:38:25;;;;;;;25.38;15.40;;;;;;;9.88;76.31;101372.91;4934007;29;20047;-77
2022/12/29 13:41:16;;;;;;;26.45;16.05;;;;;;;9.95;76.09;101363.56;4932321;29;20054;-76
2022/12/29 13:44:05;;;;;;;26.83;16.90;;;;;;;9.94;74.96;101353.81;4940611;29;20063;-77
2022/12/29 13:46:52;;;;;;;27.23;15.60;;;;;;;9.96;75.00;101349.69;4938921;29;20129;-77
2022/12/29 13:49:38;;;;;;;24.33;16.08;;;;;;;9.90;75.71;101348.16;4942759;29;20051;-77
2022/12/29 13:52:47;;;;;;;28.98;16.02;;;;;;;9.87;76.12;101346.03;4933413;29;20059;-77
2022/12/29 13:55:47;;;;;;;26.33;15.95;;;;;;;9.81;76.52;101347.19;4937714;29;20051;-77
2022/12/29 13:58:39;;;;;;;34.97;17.77;;;;;;;9.72;77.49;101348.97;4936803;29;20046;-77
2022/12/29 14:01:30;;;;;;;30.20;16.88;;;;;;;9.83;76.38;101359.38;4934026;29;20416;-77
2022/12/29 14:04:26;;;;;;;37.40;17.42;;;;;;;9.62;77.29;101365.41;4936831;29;20055;-77
2022/12/29 14:07:17;;;;;;;25.52;14.43;;;;;;;9.67;77.29;101358.00;4932859;29;20054;-78
2022/12/29 14:10:02;;;;;;;36.53;17.58;;;;;;;9.85;76.68;101349.03;4937440;29;20520;-77
2022/12/29 14:12:48;;;;;;;29.60;18.70;;;;;;;9.73;77.48;101345.16;4940226;29;20424;-77
2022/12/29 14:15:40;;;;;;;30.40;17.20;;;;;;;9.73;77.11;101339.72;4931534;29;20055;-77
2022/12/29 14:18:31;;;;;;;30.45;18.35;;;;;;;9.71;77.28;101341.91;4933370;29;20050;-77
2022/12/29 14:21:16;;;;;;;31.40;18.05;;;;;;;9.92;76.86;101354.09;4922659;29;20063;-77
2022/12/29 14:24:26;;;;;;;26.60;16.90;;;;;;;9.75;76.50;101345.69;4938489;29;20070;-77
2022/12/29 14:27:11;;;;;;;27.00;17.13;;;;;;;9.81;77.04;101349.91;4934070;29;20051;-76
2022/12/29 14:29:55;;;;;;;22.38;13.73;;;;;;;9.68;78.60;101343.31;4933605;29;20043;-77
2022/12/29 14:33:00;;;;;;;;;;;;;;;9.74;79.41;101354.91;4937041;29;20551;-76
2022/12/29 14:35:49;;;;;;;25.88;16.30;;;;;;;9.96;77.68;101362.44;4929052;29;19915;-78
2022/12/29 14:38:45;;;;;;;26.90;18.25;;;;;;;9.71;77.91;101355.47;4924903;29;20039;-77
2022/12/29 14:41:35;;;;;;;35.03;18.65;;;;;;;10.03;77.53;101358.28;4936060;29;20531;-77